sensor_id;sensor_type;location;lat;lon;timestamp;temperature;humidity
64951;DHT22;51482;47.014;7.652;2022-08-11T00:00:35;17.00;90.40
64951;DHT22;51482;47.014;7.652;2022-08-11T00:03:12;17.30;90.60
64951;DHT22;51482;47.014;7.652;2022-08-11T00:05:50;16.90;90.80
64951;DHT22;51482;47.014;7.652;2022-08-11T00:08:23;17.50;91.50
64951;DHT22;51482;47.014;7.652;2022-08-11T00:10:56;16.90;90.80
64951;DHT22;51482;47.014;7.652;2022-08-11T00:13:38;16.90;90.60
64951;DHT22;51482;47.014;7.652;2022-08-11T00:16:13;16.90;90.60
64951;DHT22;51482;47.014;7.652;2022-08-11T00:18:46;16.90;90.70
64951;DHT22;51482;47.014;7.652;2022-08-11T00:21:13;17.00;90.90
64951;DHT22;51482;47.014;7.652;2022-08-11T00:23:51;16.60;91.00
64951;DHT22;51482;47.014;7.652;2022-08-11T00:26:17;17.10;91.40
64951;DHT22;51482;47.014;7.652;2022-08-11T00:28:43;17.20;91.90
64951;DHT22;51482;47.014;7.652;2022-08-11T00:31:30;16.50;92.00
64951;DHT22;51482;47.014;7.652;2022-08-11T00:33:58;16.50;92.10
64951;DHT22;51482;47.014;7.652;2022-08-11T00:36:49;16.50;92.20
64951;DHT22;51482;47.014;7.652;2022-08-11T00:39:13;16.50;92.60
64951;DHT22;51482;47.014;7.652;2022-08-11T00:42:03;16.90;92.60
64951;DHT22;51482;47.014;7.652;2022-08-11T00:44:47;16.40;92.00
64951;DHT22;51482;47.014;7.652;2022-08-11T00:53:04;16.20;92.50
64951;DHT22;51482;47.014;7.652;2022-08-11T01:04:08;16.10;93.20
64951;DHT22;51482;47.014;7.652;2022-08-11T01:09:47;16.10;94.10
64951;DHT22;51482;47.014;7.652;2022-08-11T01:23:55;15.80;93.30
64951;DHT22;51482;47.014;7.652;2022-08-11T01:32:36;15.40;94.00
64951;DHT22;51482;47.014;7.652;2022-08-11T01:35:46;16.20;94.80
64951;DHT22;51482;47.014;7.652;2022-08-11T01:41:41;15.70;95.30
64951;DHT22;51482;47.014;7.652;2022-08-11T01:45:03;15.60;95.30
64951;DHT22;51482;47.014;7.652;2022-08-11T01:47:42;15.60;95.30
64951;DHT22;51482;47.014;7.652;2022-08-11T01:59:15;15.60;95.90
64951;DHT22;51482;47.014;7.652;2022-08-11T02:04:52;15.80;95.10
64951;DHT22;51482;47.014;7.652;2022-08-11T02:07:57;15.40;95.40
64951;DHT22;51482;47.014;7.652;2022-08-11T02:10:45;15.50;96.00
64951;DHT22;51482;47.014;7.652;2022-08-11T02:13:40;15.40;95.60
64951;DHT22;51482;47.014;7.652;2022-08-11T02:19:17;15.30;96.00
64951;DHT22;51482;47.014;7.652;2022-08-11T02:22:15;15.20;96.20
64951;DHT22;51482;47.014;7.652;2022-08-11T02:30:40;15.30;96.70
64951;DHT22;51482;47.014;7.652;2022-08-11T02:33:34;16.00;97.40
64951;DHT22;51482;47.014;7.652;2022-08-11T02:36:17;15.20;96.30
64951;DHT22;51482;47.014;7.652;2022-08-11T02:39:09;15.40;97.30
64951;DHT22;51482;47.014;7.652;2022-08-11T02:47:08;15.00;97.00
64951;DHT22;51482;47.014;7.652;2022-08-11T02:49:45;14.90;97.10
64951;DHT22;51482;47.014;7.652;2022-08-11T02:53:00;15.20;97.30
64951;DHT22;51482;47.014;7.652;2022-08-11T02:58:02;15.00;97.00
64951;DHT22;51482;47.014;7.652;2022-08-11T03:00:30;15.60;97.80
64951;DHT22;51482;47.014;7.652;2022-08-11T03:03:29;15.00;97.40
64951;DHT22;51482;47.014;7.652;2022-08-11T03:06:23;14.90;97.10
64951;DHT22;51482;47.014;7.652;2022-08-11T03:08:53;15.30;97.60
64951;DHT22;51482;47.014;7.652;2022-08-11T03:14:55;14.90;98.10
64951;DHT22;51482;47.014;7.652;2022-08-11T03:17:58;14.80;97.90
64951;DHT22;51482;47.014;7.652;2022-08-11T03:28:48;14.80;97.60
64951;DHT22;51482;47.014;7.652;2022-08-11T03:31:31;14.70;98.30
64951;DHT22;51482;47.014;7.652;2022-08-11T03:34:12;14.60;98.40
64951;DHT22;51482;47.014;7.652;2022-08-11T03:39:27;14.60;98.60
64951;DHT22;51482;47.014;7.652;2022-08-11T03:47:40;14.60;98.90
64951;DHT22;51482;47.014;7.652;2022-08-11T03:58:38;15.00;99.20
64951;DHT22;51482;47.014;7.652;2022-08-11T04:10:24;14.30;99.60
64951;DHT22;51482;47.014;7.652;2022-08-11T04:21:50;14.10;99.70
64951;DHT22;51482;47.014;7.652;2022-08-11T04:24:37;14.10;99.90
64951;DHT22;51482;47.014;7.652;2022-08-11T04:30:16;14.10;99.90
64951;DHT22;51482;47.014;7.652;2022-08-11T04:33:04;14.10;99.90
64951;DHT22;51482;47.014;7.652;2022-08-11T04:35:58;14.00;99.90
64951;DHT22;51482;47.014;7.652;2022-08-11T04:46:52;14.20;99.90
64951;DHT22;51482;47.014;7.652;2022-08-11T04:56:15;14.10;99.90
64951;DHT22;51482;47.014;7.652;2022-08-11T04:59:33;14.10;99.90
64951;DHT22;51482;47.014;7.652;2022-08-11T05:13:45;14.00;99.90
64951;DHT22;51482;47.014;7.652;2022-08-11T05:16:34;14.10;99.90
64951;DHT22;51482;47.014;7.652;2022-08-11T05:19:24;14.00;99.90
64951;DHT22;51482;47.014;7.652;2022-08-11T05:22:11;14.30;99.90
64951;DHT22;51482;47.014;7.652;2022-08-11T05:25:06;14.10;99.90
64951;DHT22;51482;47.014;7.652;2022-08-11T05:28:12;14.70;99.90
64951;DHT22;51482;47.014;7.652;2022-08-11T05:31:02;15.60;99.90
64951;DHT22;51482;47.014;7.652;2022-08-11T05:33:53;15.40;99.90
64951;DHT22;51482;47.014;7.652;2022-08-11T05:36:49;15.60;99.60
64951;DHT22;51482;47.014;7.652;2022-08-11T05:39:25;15.80;99.50
64951;DHT22;51482;47.014;7.652;2022-08-11T05:42:11;15.90;98.80
64951;DHT22;51482;47.014;7.652;2022-08-11T05:45:04;16.60;99.30
64951;DHT22;51482;47.014;7.652;2022-08-11T05:47:52;16.30;98.60
64951;DHT22;51482;47.014;7.652;2022-08-11T05:50:38;16.40;98.20
64951;DHT22;51482;47.014;7.652;2022-08-11T05:53:24;16.90;98.20
64951;DHT22;51482;47.014;7.652;2022-08-11T05:56:08;17.60;98.30
64951;DHT22;51482;47.014;7.652;2022-08-11T05:58:49;16.80;97.20
64951;DHT22;51482;47.014;7.652;2022-08-11T06:01:27;16.90;97.50
64951;DHT22;51482;47.014;7.652;2022-08-11T06:03:56;17.00;97.30
64951;DHT22;51482;47.014;7.652;2022-08-11T06:07:08;17.00;97.10
64951;DHT22;51482;47.014;7.652;2022-08-11T06:09:35;17.30;96.90
64951;DHT22;51482;47.014;7.652;2022-08-11T06:12:22;17.50;96.90
64951;DHT22;51482;47.014;7.652;2022-08-11T06:14:53;17.30;96.40
64951;DHT22;51482;47.014;7.652;2022-08-11T06:17:44;17.30;96.80
64951;DHT22;51482;47.014;7.652;2022-08-11T06:20:12;17.40;96.50
64951;DHT22;51482;47.014;7.652;2022-08-11T06:22:55;18.00;96.30
64951;DHT22;51482;47.014;7.652;2022-08-11T06:25:22;18.10;96.10
64951;DHT22;51482;47.014;7.652;2022-08-11T06:27:55;17.90;96.30
64951;DHT22;51482;47.014;7.652;2022-08-11T06:30:41;18.20;96.10
64951;DHT22;51482;47.014;7.652;2022-08-11T06:36:01;18.00;95.50
64951;DHT22;51482;47.014;7.652;2022-08-11T06:39:10;18.60;95.70
64951;DHT22;51482;47.014;7.652;2022-08-11T06:41:48;18.00;95.20
64951;DHT22;51482;47.014;7.652;2022-08-11T06:44:23;18.00;95.30
64951;DHT22;51482;47.014;7.652;2022-08-11T06:46:52;18.60;95.50
64951;DHT22;51482;47.014;7.652;2022-08-11T06:49:23;18.20;95.50
64951;DHT22;51482;47.014;7.652;2022-08-11T06:52:15;18.40;95.00
64951;DHT22;51482;47.014;7.652;2022-08-11T06:54:50;18.60;94.50
64951;DHT22;51482;47.014;7.652;2022-08-11T06:57:22;19.10;94.50
64951;DHT22;51482;47.014;7.652;2022-08-11T07:00:07;19.80;94.50
64951;DHT22;51482;47.014;7.652;2022-08-11T07:02:56;18.50;93.80
64951;DHT22;51482;47.014;7.652;2022-08-11T07:05:40;18.60;94.00
64951;DHT22;51482;47.014;7.652;2022-08-11T07:14:31;19.60;93.70
64951;DHT22;51482;47.014;7.652;2022-08-11T07:17:21;19.40;92.90
64951;DHT22;51482;47.014;7.652;2022-08-11T07:19:57;19.40;92.70
64951;DHT22;51482;47.014;7.652;2022-08-11T07:22:48;19.60;92.80
64951;DHT22;51482;47.014;7.652;2022-08-11T07:25:35;20.20;92.40
64951;DHT22;51482;47.014;7.652;2022-08-11T07:28:27;20.20;91.60
64951;DHT22;51482;47.014;7.652;2022-08-11T07:33:52;20.70;90.80
64951;DHT22;51482;47.014;7.652;2022-08-11T07:36:24;20.70;90.20
64951;DHT22;51482;47.014;7.652;2022-08-11T07:38:53;21.00;90.00
64951;DHT22;51482;47.014;7.652;2022-08-11T07:41:22;21.20;89.60
64951;DHT22;51482;47.014;7.652;2022-08-11T07:43:50;20.90;88.40
64951;DHT22;51482;47.014;7.652;2022-08-11T07:46:18;21.10;85.40
64951;DHT22;51482;47.014;7.652;2022-08-11T07:49:06;21.60;86.80
64951;DHT22;51482;47.014;7.652;2022-08-11T07:51:51;21.20;85.90
64951;DHT22;51482;47.014;7.652;2022-08-11T07:54:37;21.60;84.70
64951;DHT22;51482;47.014;7.652;2022-08-11T07:57:04;21.50;85.00
64951;DHT22;51482;47.014;7.652;2022-08-11T07:59:52;21.70;84.20
64951;DHT22;51482;47.014;7.652;2022-08-11T08:02:37;21.80;82.40
64951;DHT22;51482;47.014;7.652;2022-08-11T08:05:21;22.50;83.10
64951;DHT22;51482;47.014;7.652;2022-08-11T08:08:07;22.40;82.90
64951;DHT22;51482;47.014;7.652;2022-08-11T08:10:53;22.50;81.60
64951;DHT22;51482;47.014;7.652;2022-08-11T08:13:40;22.80;80.30
64951;DHT22;51482;47.014;7.652;2022-08-11T08:16:24;23.40;80.20
64951;DHT22;51482;47.014;7.652;2022-08-11T08:19:14;23.20;78.50
64951;DHT22;51482;47.014;7.652;2022-08-11T08:21:41;23.50;79.40
64951;DHT22;51482;47.014;7.652;2022-08-11T08:24:08;23.50;79.80
64951;DHT22;51482;47.014;7.652;2022-08-11T08:26:34;24.10;78.20
64951;DHT22;51482;47.014;7.652;2022-08-11T08:29:19;24.10;77.90
64951;DHT22;51482;47.014;7.652;2022-08-11T08:32:03;24.10;75.80
64951;DHT22;51482;47.014;7.652;2022-08-11T08:34:31;24.40;76.20
64951;DHT22;51482;47.014;7.652;2022-08-11T08:36:57;24.60;74.70
64951;DHT22;51482;47.014;7.652;2022-08-11T08:39:23;24.70;75.20
64951;DHT22;51482;47.014;7.652;2022-08-11T08:41:52;25.30;75.30
64951;DHT22;51482;47.014;7.652;2022-08-11T08:44:20;25.00;73.30
64951;DHT22;51482;47.014;7.652;2022-08-11T08:46:55;25.30;74.20
64951;DHT22;51482;47.014;7.652;2022-08-11T08:49:24;25.60;73.50
64951;DHT22;51482;47.014;7.652;2022-08-11T08:51:53;25.80;70.10
64951;DHT22;51482;47.014;7.652;2022-08-11T08:54:34;26.10;70.10
64951;DHT22;51482;47.014;7.652;2022-08-11T08:57:05;26.30;69.50
64951;DHT22;51482;47.014;7.652;2022-08-11T08:59:36;26.50;67.20
64951;DHT22;51482;47.014;7.652;2022-08-11T09:02:05;26.70;67.90
64951;DHT22;51482;47.014;7.652;2022-08-11T09:04:33;27.00;68.40
64951;DHT22;51482;47.014;7.652;2022-08-11T09:07:09;27.50;67.60
64951;DHT22;51482;47.014;7.652;2022-08-11T09:09:47;27.40;64.20
64951;DHT22;51482;47.014;7.652;2022-08-11T09:12:13;27.50;63.00
64951;DHT22;51482;47.014;7.652;2022-08-11T09:14:42;28.00;63.40
64951;DHT22;51482;47.014;7.652;2022-08-11T09:17:27;28.00;62.60
64951;DHT22;51482;47.014;7.652;2022-08-11T09:19:55;28.10;61.20
64951;DHT22;51482;47.014;7.652;2022-08-11T09:22:29;28.10;60.90
64951;DHT22;51482;47.014;7.652;2022-08-11T09:25:15;28.40;59.80
64951;DHT22;51482;47.014;7.652;2022-08-11T09:28:00;28.60;59.80
64951;DHT22;51482;47.014;7.652;2022-08-11T09:30:27;28.80;60.70
64951;DHT22;51482;47.014;7.652;2022-08-11T09:32:55;29.30;58.50
64951;DHT22;51482;47.014;7.652;2022-08-11T09:35:34;29.00;58.40
64951;DHT22;51482;47.014;7.652;2022-08-11T09:38:03;29.20;58.40
64951;DHT22;51482;47.014;7.652;2022-08-11T09:40:48;29.60;58.00
64951;DHT22;51482;47.014;7.652;2022-08-11T09:43:17;29.70;56.40
64951;DHT22;51482;47.014;7.652;2022-08-11T09:46:03;29.80;56.50
64951;DHT22;51482;47.014;7.652;2022-08-11T09:48:39;30.00;55.30
64951;DHT22;51482;47.014;7.652;2022-08-11T09:51:07;30.20;55.10
64951;DHT22;51482;47.014;7.652;2022-08-11T09:53:38;30.30;54.10
64951;DHT22;51482;47.014;7.652;2022-08-11T09:56:10;30.70;55.70
64951;DHT22;51482;47.014;7.652;2022-08-11T09:58:54;30.70;53.20
64951;DHT22;51482;47.014;7.652;2022-08-11T10:01:22;31.00;52.20
64951;DHT22;51482;47.014;7.652;2022-08-11T10:04:04;31.20;52.50
64951;DHT22;51482;47.014;7.652;2022-08-11T10:06:35;31.20;52.40
64951;DHT22;51482;47.014;7.652;2022-08-11T10:09:22;31.40;51.30
64951;DHT22;51482;47.014;7.652;2022-08-11T10:11:48;31.50;52.00
64951;DHT22;51482;47.014;7.652;2022-08-11T10:14:17;31.50;49.60
64951;DHT22;51482;47.014;7.652;2022-08-11T10:17:07;31.70;50.20
64951;DHT22;51482;47.014;7.652;2022-08-11T10:19:34;32.20;51.70
64951;DHT22;51482;47.014;7.652;2022-08-11T10:22:05;32.20;49.40
64951;DHT22;51482;47.014;7.652;2022-08-11T10:24:51;32.30;48.10
64951;DHT22;51482;47.014;7.652;2022-08-11T10:27:38;32.30;47.10
64951;DHT22;51482;47.014;7.652;2022-08-11T10:30:05;32.60;47.80
64951;DHT22;51482;47.014;7.652;2022-08-11T10:32:49;32.70;46.50
64951;DHT22;51482;47.014;7.652;2022-08-11T10:35:36;32.60;46.10
64951;DHT22;51482;47.014;7.652;2022-08-11T10:38:02;32.90;46.60
64951;DHT22;51482;47.014;7.652;2022-08-11T10:40:28;33.00;44.60
64951;DHT22;51482;47.014;7.652;2022-08-11T10:42:58;33.30;45.60
64951;DHT22;51482;47.014;7.652;2022-08-11T10:45:40;33.60;44.20
64951;DHT22;51482;47.014;7.652;2022-08-11T10:48:27;33.50;42.50
64951;DHT22;51482;47.014;7.652;2022-08-11T10:50:54;33.60;43.50
64951;DHT22;51482;47.014;7.652;2022-08-11T10:53:41;33.60;43.80
64951;DHT22;51482;47.014;7.652;2022-08-11T10:56:28;33.80;44.80
64951;DHT22;51482;47.014;7.652;2022-08-11T10:59:13;33.60;41.80
64951;DHT22;51482;47.014;7.652;2022-08-11T11:01:41;33.90;43.00
64951;DHT22;51482;47.014;7.652;2022-08-11T11:04:22;34.00;42.70
64951;DHT22;51482;47.014;7.652;2022-08-11T11:09:31;34.00;41.00
64951;DHT22;51482;47.014;7.652;2022-08-11T11:12:08;34.10;43.60
64951;DHT22;51482;47.014;7.652;2022-08-11T11:14:55;34.20;42.40
64951;DHT22;51482;47.014;7.652;2022-08-11T11:17:44;34.30;41.70
64951;DHT22;51482;47.014;7.652;2022-08-11T11:20:24;34.40;42.70
64951;DHT22;51482;47.014;7.652;2022-08-11T11:22:56;34.60;42.70
64951;DHT22;51482;47.014;7.652;2022-08-11T11:25:43;33.90;40.40
64951;DHT22;51482;47.014;7.652;2022-08-11T11:37:09;34.10;41.40
64951;DHT22;51482;47.014;7.652;2022-08-11T11:39:37;34.00;41.10
64951;DHT22;51482;47.014;7.652;2022-08-11T11:42:06;34.00;42.30
64951;DHT22;51482;47.014;7.652;2022-08-11T11:44:33;33.80;42.10
64951;DHT22;51482;47.014;7.652;2022-08-11T11:47:01;33.80;41.30
64951;DHT22;51482;47.014;7.652;2022-08-11T11:49:28;34.00;42.10
64951;DHT22;51482;47.014;7.652;2022-08-11T11:51:57;33.70;41.90
64951;DHT22;51482;47.014;7.652;2022-08-11T11:54:27;33.50;41.70
64951;DHT22;51482;47.014;7.652;2022-08-11T11:56:57;33.60;42.90
64951;DHT22;51482;47.014;7.652;2022-08-11T11:59:44;33.80;41.20
64951;DHT22;51482;47.014;7.652;2022-08-11T12:02:29;33.90;41.30
64951;DHT22;51482;47.014;7.652;2022-08-11T12:04:54;33.70;40.40
64951;DHT22;51482;47.014;7.652;2022-08-11T12:07:22;33.60;40.90
64951;DHT22;51482;47.014;7.652;2022-08-11T12:10:07;33.80;40.50
64951;DHT22;51482;47.014;7.652;2022-08-11T12:12:33;33.80;40.40
64951;DHT22;51482;47.014;7.652;2022-08-11T12:15:17;34.10;40.00
64951;DHT22;51482;47.014;7.652;2022-08-11T12:17:44;34.10;40.80
64951;DHT22;51482;47.014;7.652;2022-08-11T12:20:11;34.10;40.90
64951;DHT22;51482;47.014;7.652;2022-08-11T12:22:39;33.70;41.10
64951;DHT22;51482;47.014;7.652;2022-08-11T12:25:24;34.00;40.70
64951;DHT22;51482;47.014;7.652;2022-08-11T12:28:08;33.80;40.00
64951;DHT22;51482;47.014;7.652;2022-08-11T12:30:34;34.10;39.80
64951;DHT22;51482;47.014;7.652;2022-08-11T12:33:00;34.10;40.00
64951;DHT22;51482;47.014;7.652;2022-08-11T12:35:26;34.50;38.50
64951;DHT22;51482;47.014;7.652;2022-08-11T12:37:53;34.10;38.90
64951;DHT22;51482;47.014;7.652;2022-08-11T12:40:24;34.30;39.40
64951;DHT22;51482;47.014;7.652;2022-08-11T12:43:14;34.10;39.40
64951;DHT22;51482;47.014;7.652;2022-08-11T12:46:01;34.20;39.90
64951;DHT22;51482;47.014;7.652;2022-08-11T12:48:32;34.40;39.30
64951;DHT22;51482;47.014;7.652;2022-08-11T12:51:24;34.40;38.20
64951;DHT22;51482;47.014;7.652;2022-08-11T12:57:16;34.70;38.00
64951;DHT22;51482;47.014;7.652;2022-08-11T13:00:01;34.90;38.40
64951;DHT22;51482;47.014;7.652;2022-08-11T13:02:47;34.80;38.80
64951;DHT22;51482;47.014;7.652;2022-08-11T13:05:32;34.60;38.10
64951;DHT22;51482;47.014;7.652;2022-08-11T13:08:00;34.50;38.30
64951;DHT22;51482;47.014;7.652;2022-08-11T13:10:27;34.70;38.30
64951;DHT22;51482;47.014;7.652;2022-08-11T13:13:20;34.30;38.10
64951;DHT22;51482;47.014;7.652;2022-08-11T13:15:48;34.20;37.70
64951;DHT22;51482;47.014;7.652;2022-08-11T13:18:16;34.30;37.90
64951;DHT22;51482;47.014;7.652;2022-08-11T13:20:43;34.50;37.60
64951;DHT22;51482;47.014;7.652;2022-08-11T13:23:12;34.40;37.60
64951;DHT22;51482;47.014;7.652;2022-08-11T13:25:40;34.70;37.10
64951;DHT22;51482;47.014;7.652;2022-08-11T13:28:10;34.50;37.80
64951;DHT22;51482;47.014;7.652;2022-08-11T13:30:37;34.70;38.20
64951;DHT22;51482;47.014;7.652;2022-08-11T13:33:22;34.60;37.10
64951;DHT22;51482;47.014;7.652;2022-08-11T13:35:53;34.70;36.20
64951;DHT22;51482;47.014;7.652;2022-08-11T13:38:22;34.70;36.50
64951;DHT22;51482;47.014;7.652;2022-08-11T13:40:49;34.60;36.20
64951;DHT22;51482;47.014;7.652;2022-08-11T13:43:19;34.60;36.70
64951;DHT22;51482;47.014;7.652;2022-08-11T13:45:46;34.50;36.80
64951;DHT22;51482;47.014;7.652;2022-08-11T13:48:12;34.70;36.00
64951;DHT22;51482;47.014;7.652;2022-08-11T13:50:43;34.60;36.50
64951;DHT22;51482;47.014;7.652;2022-08-11T13:53:29;34.50;36.30
64951;DHT22;51482;47.014;7.652;2022-08-11T13:55:56;34.60;36.90
64951;DHT22;51482;47.014;7.652;2022-08-11T13:58:24;34.70;36.40
64951;DHT22;51482;47.014;7.652;2022-08-11T14:00:51;34.50;36.40
64951;DHT22;51482;47.014;7.652;2022-08-11T14:03:24;35.30;37.10
64951;DHT22;51482;47.014;7.652;2022-08-11T14:05:52;35.00;36.50
64951;DHT22;51482;47.014;7.652;2022-08-11T14:08:31;35.00;36.10
64951;DHT22;51482;47.014;7.652;2022-08-11T14:11:03;34.80;36.20
64951;DHT22;51482;47.014;7.652;2022-08-11T14:13:49;34.70;36.50
64951;DHT22;51482;47.014;7.652;2022-08-11T14:16:29;34.60;36.20
64951;DHT22;51482;47.014;7.652;2022-08-11T14:19:04;34.40;35.90
64951;DHT22;51482;47.014;7.652;2022-08-11T14:21:36;34.70;36.00
64951;DHT22;51482;47.014;7.652;2022-08-11T14:24:21;34.30;35.90
64951;DHT22;51482;47.014;7.652;2022-08-11T14:26:48;34.10;35.60
64951;DHT22;51482;47.014;7.652;2022-08-11T14:29:20;34.00;35.90
64951;DHT22;51482;47.014;7.652;2022-08-11T14:31:47;34.30;36.20
64951;DHT22;51482;47.014;7.652;2022-08-11T14:34:16;34.40;35.80
64951;DHT22;51482;47.014;7.652;2022-08-11T14:36:44;34.20;36.30
64951;DHT22;51482;47.014;7.652;2022-08-11T14:39:14;34.40;36.60
64951;DHT22;51482;47.014;7.652;2022-08-11T14:42:01;34.40;36.40
64951;DHT22;51482;47.014;7.652;2022-08-11T14:45:07;34.50;37.00
64951;DHT22;51482;47.014;7.652;2022-08-11T14:47:55;34.20;36.80
64951;DHT22;51482;47.014;7.652;2022-08-11T14:50:24;34.10;37.60
64951;DHT22;51482;47.014;7.652;2022-08-11T14:52:54;33.90;36.60
64951;DHT22;51482;47.014;7.652;2022-08-11T14:55:23;33.70;37.70
64951;DHT22;51482;47.014;7.652;2022-08-11T14:58:09;33.60;38.20
64951;DHT22;51482;47.014;7.652;2022-08-11T15:00:35;33.50;38.00
64951;DHT22;51482;47.014;7.652;2022-08-11T15:03:02;33.30;38.30
64951;DHT22;51482;47.014;7.652;2022-08-11T15:05:35;33.10;38.60
64951;DHT22;51482;47.014;7.652;2022-08-11T15:08:02;33.20;38.40
64951;DHT22;51482;47.014;7.652;2022-08-11T15:10:28;33.00;37.60
64951;DHT22;51482;47.014;7.652;2022-08-11T15:12:57;32.90;37.90
64951;DHT22;51482;47.014;7.652;2022-08-11T15:15:24;33.00;37.80
64951;DHT22;51482;47.014;7.652;2022-08-11T15:18:11;32.90;38.60
64951;DHT22;51482;47.014;7.652;2022-08-11T15:20:40;32.90;39.10
64951;DHT22;51482;47.014;7.652;2022-08-11T15:23:25;33.00;39.00
64951;DHT22;51482;47.014;7.652;2022-08-11T15:26:32;32.90;38.70
64951;DHT22;51482;47.014;7.652;2022-08-11T15:29:21;32.70;39.10
64951;DHT22;51482;47.014;7.652;2022-08-11T15:32:09;32.50;39.00
64951;DHT22;51482;47.014;7.652;2022-08-11T15:34:57;32.50;39.10
64951;DHT22;51482;47.014;7.652;2022-08-11T15:37:44;32.40;39.40
64951;DHT22;51482;47.014;7.652;2022-08-11T15:40:27;32.20;39.00
64951;DHT22;51482;47.014;7.652;2022-08-11T15:43:31;32.20;39.30
64951;DHT22;51482;47.014;7.652;2022-08-11T15:46:33;31.90;39.90
64951;DHT22;51482;47.014;7.652;2022-08-11T15:49:14;32.10;40.40
64951;DHT22;51482;47.014;7.652;2022-08-11T15:51:47;32.20;39.90
64951;DHT22;51482;47.014;7.652;2022-08-11T15:54:16;32.00;40.20
64951;DHT22;51482;47.014;7.652;2022-08-11T15:56:51;31.90;40.00
64951;DHT22;51482;47.014;7.652;2022-08-11T15:59:18;31.60;40.20
64951;DHT22;51482;47.014;7.652;2022-08-11T16:02:04;31.60;40.20
64951;DHT22;51482;47.014;7.652;2022-08-11T16:05:04;31.50;40.90
64951;DHT22;51482;47.014;7.652;2022-08-11T16:07:32;31.50;41.50
64951;DHT22;51482;47.014;7.652;2022-08-11T16:10:11;31.50;41.10
64951;DHT22;51482;47.014;7.652;2022-08-11T16:13:02;31.30;40.90
64951;DHT22;51482;47.014;7.652;2022-08-11T16:15:37;31.20;41.30
64951;DHT22;51482;47.014;7.652;2022-08-11T16:18:25;31.30;42.20
64951;DHT22;51482;47.014;7.652;2022-08-11T16:21:10;31.20;41.10
64951;DHT22;51482;47.014;7.652;2022-08-11T16:23:36;31.20;41.70
64951;DHT22;51482;47.014;7.652;2022-08-11T16:26:05;31.00;41.30
64951;DHT22;51482;47.014;7.652;2022-08-11T16:28:33;30.90;42.20
64951;DHT22;51482;47.014;7.652;2022-08-11T16:31:00;30.90;41.90
64951;DHT22;51482;47.014;7.652;2022-08-11T16:33:28;31.00;42.50
64951;DHT22;51482;47.014;7.652;2022-08-11T16:35:54;30.90;42.60
64951;DHT22;51482;47.014;7.652;2022-08-11T16:38:39;30.90;43.00
64951;DHT22;51482;47.014;7.652;2022-08-11T16:41:09;30.80;42.50
64951;DHT22;51482;47.014;7.652;2022-08-11T16:43:45;30.60;43.00
64951;DHT22;51482;47.014;7.652;2022-08-11T16:46:35;30.50;42.60
64951;DHT22;51482;47.014;7.652;2022-08-11T16:49:43;30.50;42.90
64951;DHT22;51482;47.014;7.652;2022-08-11T16:52:11;30.20;43.00
64951;DHT22;51482;47.014;7.652;2022-08-11T16:54:38;30.20;43.30
64951;DHT22;51482;47.014;7.652;2022-08-11T16:57:14;30.20;43.30
64951;DHT22;51482;47.014;7.652;2022-08-11T17:00:03;30.10;43.30
64951;DHT22;51482;47.014;7.652;2022-08-11T17:02:33;30.00;43.90
64951;DHT22;51482;47.014;7.652;2022-08-11T17:05:22;29.90;44.60
64951;DHT22;51482;47.014;7.652;2022-08-11T17:08:08;29.60;44.10
64951;DHT22;51482;47.014;7.652;2022-08-11T17:11:02;29.60;45.00
64951;DHT22;51482;47.014;7.652;2022-08-11T17:14:03;29.40;44.50
64951;DHT22;51482;47.014;7.652;2022-08-11T17:16:35;29.20;45.20
64951;DHT22;51482;47.014;7.652;2022-08-11T17:19:12;29.10;45.30
64951;DHT22;51482;47.014;7.652;2022-08-11T17:21:49;29.00;45.00
64951;DHT22;51482;47.014;7.652;2022-08-11T17:24:37;29.00;45.20
64951;DHT22;51482;47.014;7.652;2022-08-11T17:27:04;28.90;45.30
64951;DHT22;51482;47.014;7.652;2022-08-11T17:29:40;29.30;45.10
64951;DHT22;51482;47.014;7.652;2022-08-11T17:32:16;28.80;45.50
64951;DHT22;51482;47.014;7.652;2022-08-11T17:35:07;28.70;44.80
64951;DHT22;51482;47.014;7.652;2022-08-11T17:38:17;28.70;45.30
64951;DHT22;51482;47.014;7.652;2022-08-11T17:40:51;28.60;45.20
64951;DHT22;51482;47.014;7.652;2022-08-11T17:43:37;28.50;45.90
64951;DHT22;51482;47.014;7.652;2022-08-11T17:46:22;28.30;45.70
64951;DHT22;51482;47.014;7.652;2022-08-11T17:49:08;28.40;46.50
64951;DHT22;51482;47.014;7.652;2022-08-11T17:51:36;28.30;46.80
64951;DHT22;51482;47.014;7.652;2022-08-11T17:54:22;28.20;46.80
64951;DHT22;51482;47.014;7.652;2022-08-11T17:57:08;28.00;46.80
64951;DHT22;51482;47.014;7.652;2022-08-11T17:59:54;27.90;47.60
64951;DHT22;51482;47.014;7.652;2022-08-11T18:02:23;27.90;47.70
64951;DHT22;51482;47.014;7.652;2022-08-11T18:05:09;27.80;48.10
64951;DHT22;51482;47.014;7.652;2022-08-11T18:07:36;27.80;48.30
64951;DHT22;51482;47.014;7.652;2022-08-11T18:10:21;27.70;48.60
64951;DHT22;51482;47.014;7.652;2022-08-11T18:13:06;27.60;48.90
64951;DHT22;51482;47.014;7.652;2022-08-11T18:15:52;27.50;48.80
64951;DHT22;51482;47.014;7.652;2022-08-11T18:18:36;27.40;49.10
64951;DHT22;51482;47.014;7.652;2022-08-11T18:21:20;27.30;49.10
64951;DHT22;51482;47.014;7.652;2022-08-11T18:24:11;27.60;49.80
64951;DHT22;51482;47.014;7.652;2022-08-11T18:26:59;27.40;49.70
64951;DHT22;51482;47.014;7.652;2022-08-11T18:29:48;27.00;49.40
64951;DHT22;51482;47.014;7.652;2022-08-11T18:32:33;27.00;50.20
64951;DHT22;51482;47.014;7.652;2022-08-11T18:35:19;26.90;50.80
64951;DHT22;51482;47.014;7.652;2022-08-11T18:38:05;26.90;51.50
64951;DHT22;51482;47.014;7.652;2022-08-11T18:40:52;26.70;51.70
64951;DHT22;51482;47.014;7.652;2022-08-11T18:43:41;26.70;52.60
64951;DHT22;51482;47.014;7.652;2022-08-11T18:46:32;26.70;51.70
64951;DHT22;51482;47.014;7.652;2022-08-11T18:49:21;26.50;51.20
64951;DHT22;51482;47.014;7.652;2022-08-11T18:52:08;26.40;50.10
64951;DHT22;51482;47.014;7.652;2022-08-11T18:54:57;26.30;51.60
64951;DHT22;51482;47.014;7.652;2022-08-11T18:57:45;26.20;51.80
64951;DHT22;51482;47.014;7.652;2022-08-11T19:00:31;26.10;51.60
64951;DHT22;51482;47.014;7.652;2022-08-11T19:03:17;25.70;52.90
64951;DHT22;51482;47.014;7.652;2022-08-11T19:06:04;26.00;53.50
64951;DHT22;51482;47.014;7.652;2022-08-11T19:08:56;25.80;53.90
64951;DHT22;51482;47.014;7.652;2022-08-11T19:11:40;25.80;54.40
64951;DHT22;51482;47.014;7.652;2022-08-11T19:14:28;26.00;54.20
64951;DHT22;51482;47.014;7.652;2022-08-11T19:17:14;25.60;54.20
64951;DHT22;51482;47.014;7.652;2022-08-11T19:20:01;25.40;54.30
64951;DHT22;51482;47.014;7.652;2022-08-11T19:22:47;25.50;55.50
64951;DHT22;51482;47.014;7.652;2022-08-11T19:25:31;25.20;56.50
64951;DHT22;51482;47.014;7.652;2022-08-11T19:28:18;25.30;55.40
64951;DHT22;51482;47.014;7.652;2022-08-11T19:31:03;25.10;55.40
64951;DHT22;51482;47.014;7.652;2022-08-11T19:33:47;24.90;55.70